Time;durP1;ratioP1;P1;durP2;ratioP2;P2;SDS_P1;SDS_P2;PMS_P1;PMS_P2;Temp;Humidity;BMP_temperature;BMP_pressure;BME280_temperature;BME280_humidity;BME280_pressure;Samples;Min_cycle;Max_cycle;Signal;HPM_P1;HPM_P2
2023/04/30 00:00:25;;;;;;;67.50;40.95;;;;;;;;;;5019956;28;20186;-84
2023/04/30 00:02:51;;;;;;;59.15;39.22;;;;;;;;;;5054286;28;20177;-83
2023/04/30 00:05:17;;;;;;;62.13;39.35;;;;;;;;;;5035938;28;20173;-83
2023/04/30 00:07:43;;;;;;;63.42;37.60;;;;;;;;;;5019429;28;20259;-83
2023/04/30 00:10:10;;;;;;;61.77;37.77;;;;;;;;;;5036353;28;20177;-84
2023/04/30 00:12:36;;;;;;;62.95;37.88;;;;;;;;;;5020240;28;20455;-84
2023/04/30 00:15:02;;;;;;;68.00;39.97;;;;;;;;;;5037065;28;20209;-83
2023/04/30 00:17:28;;;;;;;57.42;38.97;;;;;;;;;;5036143;28;20548;-84
2023/04/30 00:19:54;;;;;;;65.50;43.17;;;;;;;;;;5036489;28;20173;-83
2023/04/30 00:22:20;;;;;;;73.03;42.40;;;;;;;;;;5036509;28;20403;-84
2023/04/30 00:24:46;;;;;;;63.93;37.33;;;;;;;;;;5020272;28;20200;-83
2023/04/30 00:27:12;;;;;;;61.93;38.03;;;;;;;;;;5019901;28;20473;-84
2023/04/30 00:29:38;;;;;;;58.95;37.53;;;;;;;;;;5036039;28;20788;-83
2023/04/30 00:32:05;;;;;;;63.57;38.43;;;;;;;;;;5054697;28;20186;-83
2023/04/30 00:34:31;;;;;;;60.72;37.83;;;;;;;;;;5037480;28;20411;-83
2023/04/30 00:36:57;;;;;;;66.05;37.88;;;;;;;;;;5023441;28;20181;-83
2023/04/30 00:39:23;;;;;;;58.10;36.03;;;;;;;;;;5058160;28;20178;-84
2023/04/30 00:41:49;;;;;;;65.10;36.20;;;;;;;;;;5040215;28;20453;-83
2023/04/30 00:44:15;;;;;;;61.78;36.08;;;;;;;;;;5040025;28;20416;-83
2023/04/30 00:46:41;;;;;;;54.63;33.87;;;;;;;;;;5039836;28;20213;-83
2023/04/30 00:49:07;;;;;;;49.03;33.30;;;;;;;;;;5040009;28;20415;-84
2023/04/30 00:51:33;;;;;;;49.30;32.33;;;;;;;;;;5023428;28;20423;-83
2023/04/30 00:54:01;;;;;;;48.55;30.48;;;;;;;;;;5039715;28;20538;-83
2023/04/30 00:56:28;;;;;;;49.88;30.63;;;;;;;;;;5039189;28;20231;-83
2023/04/30 00:58:56;;;;;;;45.25;29.38;;;;;;;;;;5057566;28;20177;-83
2023/04/30 01:01:23;;;;;;;50.53;31.08;;;;;;;;;;5023430;28;20276;-82
2023/04/30 01:03:49;;;;;;;48.15;32.80;;;;;;;;;;5057295;28;20177;-83
2023/04/30 01:06:15;;;;;;;43.28;29.75;;;;;;;;;;5056836;28;20200;-83
2023/04/30 01:08:41;;;;;;;41.97;28.10;;;;;;;;;;5023381;28;20191;-82
2023/04/30 01:11:12;;;;;;;44.83;27.80;;;;;;;;;;5022804;28;20412;-89
2023/04/30 01:13:38;;;;;;;46.30;31.73;;;;;;;;;;5039891;28;20893;-83
2023/04/30 01:16:11;;;;;;;45.33;30.85;;;;;;;;;;5057187;28;20176;-83
2023/04/30 01:18:41;;;;;;;51.13;31.63;;;;;;;;;;5039327;28;20185;-83
2023/04/30 01:21:07;;;;;;;50.17;31.58;;;;;;;;;;5056969;28;20209;-88
2023/04/30 01:23:52;;;;;;;44.60;29.27;;;;;;;;;;5057103;28;20181;-83
2023/04/30 01:26:17;;;;;;;43.65;29.17;;;;;;;;;;5038940;28;20209;-83
2023/04/30 01:28:45;;;;;;;44.17;29.73;;;;;;;;;;5056791;28;20184;-83
2023/04/30 01:31:12;;;;;;;41.13;29.10;;;;;;;;;;5056909;28;20396;-83
2023/04/30 01:33:38;;;;;;;40.42;27.67;;;;;;;;;;5056852;28;20247;-83
2023/04/30 01:36:11;;;;;;;39.67;28.00;;;;;;;;;;5056829;28;20177;-83
2023/04/30 01:38:52;;;;;;;45.67;29.00;;;;;;;;;;5056853;28;20462;-83
2023/04/30 01:41:33;;;;;;;41.47;27.60;;;;;;;;;;5038638;28;20189;-82
2023/04/30 01:44:14;;;;;;;37.95;25.63;;;;;;;;;;5038892;28;20583;-82
2023/04/30 01:46:42;;;;;;;35.17;26.30;;;;;;;;;;5055012;28;20193;-82
2023/04/30 01:49:37;;;;;;;34.50;24.73;;;;;;;;;;5039017;28;20216;-82
2023/04/30 01:52:09;;;;;;;36.80;25.13;;;;;;;;;;4986135;28;20263;-82
2023/04/30 01:54:42;;;;;;;37.00;23.20;;;;;;;;;;5038770;28;20720;-82
2023/04/30 01:57:12;;;;;;;29.65;21.10;;;;;;;;;;5038952;28;20173;-81
2023/04/30 01:59:39;;;;;;;34.63;21.73;;;;;;;;;;5039338;28;20185;-82
2023/04/30 02:02:05;;;;;;;30.45;21.42;;;;;;;;;;5038854;28;20235;-82
2023/04/30 02:04:32;;;;;;;31.23;21.00;;;;;;;;;;5038440;28;20223;-82
2023/04/30 02:06:58;;;;;;;29.15;20.17;;;;;;;;;;5038377;28;20233;-81
2023/04/30 02:09:24;;;;;;;26.73;19.92;;;;;;;;;;5022267;28;20177;-82
2023/04/30 02:11:50;;;;;;;32.65;20.02;;;;;;;;;;5038636;28;20625;-81
2023/04/30 02:14:16;;;;;;;26.27;18.50;;;;;;;;;;5056550;28;20181;-81
2023/04/30 02:16:42;;;;;;;30.75;20.63;;;;;;;;;;5056663;28;20207;-81
2023/04/30 02:19:08;;;;;;;30.77;21.47;;;;;;;;;;5022154;28;20239;-81
2023/04/30 02:21:34;;;;;;;29.67;20.40;;;;;;;;;;5038434;28;20815;-81
2023/04/30 02:24:00;;;;;;;34.03;23.77;;;;;;;;;;5056338;28;20178;-81
2023/04/30 02:26:26;;;;;;;32.03;22.60;;;;;;;;;;5021922;28;20815;-81
2023/04/30 02:28:52;;;;;;;33.05;23.38;;;;;;;;;;5056287;28;20425;-81
2023/04/30 02:31:19;;;;;;;35.75;23.23;;;;;;;;;;5038393;28;20166;-81
2023/04/30 02:33:44;;;;;;;35.92;27.40;;;;;;;;;;5056076;28;20257;-81
2023/04/30 02:36:10;;;;;;;41.83;26.87;;;;;;;;;;5022113;28;20216;-81
2023/04/30 02:38:37;;;;;;;34.33;23.97;;;;;;;;;;5038793;28;20777;-81
2023/04/30 02:41:03;;;;;;;40.35;26.00;;;;;;;;;;5021944;28;20941;-81
2023/04/30 02:43:29;;;;;;;38.58;24.95;;;;;;;;;;5038101;28;20177;-81
2023/04/30 02:45:55;;;;;;;38.60;25.27;;;;;;;;;;5038121;28;20642;-81
2023/04/30 02:48:21;;;;;;;43.65;28.23;;;;;;;;;;5038326;28;20180;-81
2023/04/30 02:50:47;;;;;;;37.42;25.48;;;;;;;;;;5038415;28;20176;-81
2023/04/30 02:53:13;;;;;;;36.40;26.00;;;;;;;;;;5039383;28;20260;-81
2023/04/30 02:55:39;;;;;;;34.80;26.50;;;;;;;;;;5060321;28;20469;-82
2023/04/30 03:04:15;;;;;;;36.13;25.13;;;;;;;;;;5054917;28;20261;-81
2023/04/30 03:06:41;;;;;;;31.43;21.80;;;;;;;;;;5038232;28;20233;-81
2023/04/30 03:09:07;;;;;;;29.95;22.20;;;;;;;;;;5021732;28;20470;-81
2023/04/30 03:11:36;;;;;;;32.72;21.80;;;;;;;;;;5037889;28;20187;-81
2023/04/30 03:14:02;;;;;;;30.67;23.25;;;;;;;;;;5038244;28;20276;-81
2023/04/30 03:16:29;;;;;;;34.50;22.63;;;;;;;;;;5055518;28;20205;-81
2023/04/30 03:18:56;;;;;;;37.40;22.98;;;;;;;;;;5038088;28;20416;-81
2023/04/30 03:21:22;;;;;;;35.00;22.15;;;;;;;;;;5038534;28;20277;-81
2023/04/30 03:23:48;;;;;;;31.02;21.85;;;;;;;;;;5038560;28;20255;-80
2023/04/30 03:29:27;;;;;;;28.38;21.73;;;;;;;;;;5055223;28;20195;-82
2023/04/30 03:35:09;;;;;;;30.42;20.45;;;;;;;;;;5055232;28;20162;-82
2023/04/30 03:40:41;;;;;;;26.00;18.90;;;;;;;;;;5055131;28;20278;-81
2023/04/30 03:43:07;;;;;;;27.70;19.35;;;;;;;;;;5037658;28;20188;-82
2023/04/30 03:45:33;;;;;;;29.43;20.27;;;;;;;;;;5038309;28;20176;-82
2023/04/30 03:48:08;;;;;;;32.83;20.70;;;;;;;;;;5021962;28;20456;-82
2023/04/30 03:53:37;;;;;;;28.48;18.58;;;;;;;;;;5055301;28;20175;-81
2023/04/30 03:56:31;;;;;;;25.63;18.97;;;;;;;;;;5054049;28;20202;-82
2023/04/30 03:58:57;;;;;;;26.88;19.02;;;;;;;;;;5037065;28;20471;-82
2023/04/30 04:01:23;;;;;;;23.60;18.00;;;;;;;;;;5037300;28;20645;-82
2023/04/30 04:06:55;;;;;;;31.08;20.80;;;;;;;;;;5055121;28;20226;-82
2023/04/30 04:12:28;;;;;;;28.23;18.77;;;;;;;;;;5059364;28;20156;-81
2023/04/30 04:14:54;;;;;;;34.08;19.27;;;;;;;;;;5025859;28;20537;-81
2023/04/30 04:17:20;;;;;;;23.80;17.60;;;;;;;;;;5024921;28;20633;-82
2023/04/30 04:19:46;;;;;;;25.65;18.23;;;;;;;;;;5059058;28;20181;-81
2023/04/30 04:22:12;;;;;;;25.15;17.60;;;;;;;;;;5041706;28;20204;-81
2023/04/30 04:24:38;;;;;;;28.40;18.30;;;;;;;;;;5041255;28;20181;-82
2023/04/30 04:27:04;;;;;;;25.87;17.43;;;;;;;;;;5040944;28;20449;-81
2023/04/30 04:29:31;;;;;;;30.85;19.17;;;;;;;;;;5059233;28;20513;-81
2023/04/30 04:35:03;;;;;;;22.00;17.33;;;;;;;;;;5058462;28;20215;-82
2023/04/30 04:37:29;;;;;;;29.63;19.73;;;;;;;;;;5041099;28;20259;-82
2023/04/30 04:52:41;;;;;;;36.17;19.00;;;;;;;;;;5059519;28;20190;-81
2023/04/30 04:58:11;;;;;;;31.20;20.10;;;;;;;;;;5057611;28;20278;-81
2023/04/30 05:00:38;;;;;;;28.70;20.80;;;;;;;;;;5040021;28;20189;-81
2023/04/30 05:03:04;;;;;;;28.02;20.38;;;;;;;;;;5036113;28;20916;-81
2023/04/30 05:05:30;;;;;;;32.00;20.43;;;;;;;;;;5020955;28;20216;-81
2023/04/30 05:07:56;;;;;;;30.75;20.20;;;;;;;;;;5020584;28;20449;-81
2023/04/30 05:10:22;;;;;;;30.08;20.38;;;;;;;;;;5020260;28;20193;-82
2023/04/30 05:12:48;;;;;;;28.77;20.13;;;;;;;;;;5020236;28;20561;-81
2023/04/30 05:15:14;;;;;;;32.53;20.70;;;;;;;;;;5020544;28;20444;-81
2023/04/30 05:17:40;;;;;;;34.33;22.87;;;;;;;;;;5038084;28;20401;-81
2023/04/30 05:20:06;;;;;;;31.25;20.83;;;;;;;;;;5037598;28;20407;-81
2023/04/30 05:22:32;;;;;;;28.95;21.27;;;;;;;;;;5020253;28;20726;-81
2023/04/30 05:24:58;;;;;;;31.83;21.77;;;;;;;;;;5020444;28;20182;-81
2023/04/30 05:27:25;;;;;;;32.40;23.80;;;;;;;;;;5019920;28;20535;-81
2023/04/30 05:29:51;;;;;;;35.17;24.05;;;;;;;;;;5020040;28;20540;-81
2023/04/30 05:32:17;;;;;;;40.10;26.02;;;;;;;;;;5019905;28;20645;-81
2023/04/30 05:34:43;;;;;;;41.47;27.10;;;;;;;;;;5019992;28;20269;-81
2023/04/30 05:37:11;;;;;;;41.93;27.03;;;;;;;;;;5019813;28;20773;-81
2023/04/30 05:39:37;;;;;;;41.53;27.75;;;;;;;;;;5037327;28;20405;-81
2023/04/30 05:42:03;;;;;;;42.60;27.17;;;;;;;;;;5037608;28;20236;-81
2023/04/30 05:44:29;;;;;;;41.17;27.17;;;;;;;;;;5020355;28;20419;-81
2023/04/30 05:50:12;;;;;;;45.97;25.40;;;;;;;;;;5037719;28;20233;-81
2023/04/30 05:52:38;;;;;;;47.33;27.40;;;;;;;;;;5019360;28;20196;-81
2023/04/30 05:55:05;;;;;;;41.73;26.00;;;;;;;;;;5003402;28;20185;-81
2023/04/30 05:57:31;;;;;;;48.85;27.08;;;;;;;;;;5019285;28;20490;-81
2023/04/30 05:59:57;;;;;;;44.27;27.17;;;;;;;;;;5036933;28;20175;-81
2023/04/30 06:02:23;;;;;;;43.92;27.80;;;;;;;;;;5002796;28;20568;-91
2023/04/30 06:04:49;;;;;;;45.03;28.73;;;;;;;;;;5019341;28;20632;-87
2023/04/30 06:07:15;;;;;;;47.20;28.80;;;;;;;;;;5031405;28;20495;-89
2023/04/30 06:09:41;;;;;;;50.37;30.20;;;;;;;;;;5018915;28;20186;-81
2023/04/30 06:12:07;;;;;;;57.03;31.77;;;;;;;;;;5037265;28;20419;-81
2023/04/30 06:14:33;;;;;;;57.08;30.45;;;;;;;;;;5019323;28;20412;-81
2023/04/30 06:16:59;;;;;;;58.33;33.03;;;;;;;;;;5018749;28;20174;-82
2023/04/30 06:19:25;;;;;;;61.40;35.37;;;;;;;;;;5018436;28;20304;-82
2023/04/30 06:21:51;;;;;;;59.03;36.07;;;;;;;;;;5003268;28;20428;-81
2023/04/30 06:24:17;;;;;;;65.60;38.77;;;;;;;;;;5002636;28;20422;-80
2023/04/30 06:26:43;;;;;;;61.97;35.77;;;;;;;;;;5017993;28;20467;-82
2023/04/30 06:29:09;;;;;;;61.27;35.53;;;;;;;;;;5018217;28;20957;-83
2023/04/30 06:31:35;;;;;;;60.50;34.25;;;;;;;;;;5001534;28;20437;-81
2023/04/30 06:34:01;;;;;;;55.37;34.20;;;;;;;;;;5019682;28;20190;-79
2023/04/30 06:36:27;;;;;;;51.67;35.08;;;;;;;;;;5018844;28;20430;-81
2023/04/30 06:38:53;;;;;;;61.73;33.63;;;;;;;;;;5019697;28;20181;-80
2023/04/30 06:41:19;;;;;;;54.73;34.80;;;;;;;;;;5017352;28;20823;-80
2023/04/30 06:43:45;;;;;;;58.50;35.90;;;;;;;;;;4999296;28;20561;-80
2023/04/30 06:46:11;;;;;;;57.30;35.28;;;;;;;;;;5015957;28;20230;-80
2023/04/30 06:48:37;;;;;;;60.83;35.67;;;;;;;;;;4998696;28;20183;-79
2023/04/30 06:51:03;;;;;;;58.58;37.28;;;;;;;;;;4999476;28;20514;-80
2023/04/30 06:53:29;;;;;;;54.92;33.47;;;;;;;;;;4999240;28;20190;-80
2023/04/30 06:55:55;;;;;;;54.07;31.50;;;;;;;;;;5015877;28;20170;-80
2023/04/30 06:58:21;;;;;;;55.30;35.03;;;;;;;;;;4999563;28;20472;-80
2023/04/30 07:00:47;;;;;;;49.75;32.47;;;;;;;;;;5017128;28;20387;-80
2023/04/30 07:03:13;;;;;;;45.40;29.30;;;;;;;;;;5002789;28;20184;-80
2023/04/30 07:05:40;;;;;;;46.83;29.57;;;;;;;;;;5002371;28;20448;-80
2023/04/30 07:08:06;;;;;;;45.60;30.30;;;;;;;;;;5018623;28;20555;-80
2023/04/30 07:10:32;;;;;;;38.25;27.33;;;;;;;;;;5018884;28;20241;-81
2023/04/30 07:12:58;;;;;;;49.42;30.80;;;;;;;;;;5002326;28;20182;-80
2023/04/30 07:15:24;;;;;;;41.17;28.77;;;;;;;;;;5018342;28;20181;-80
2023/04/30 07:17:50;;;;;;;40.33;28.90;;;;;;;;;;5018054;28;20417;-80
2023/04/30 07:20:16;;;;;;;44.33;28.90;;;;;;;;;;5018745;28;20421;-81
2023/04/30 07:22:44;;;;;;;37.25;25.75;;;;;;;;;;5002235;28;20852;-81
2023/04/30 07:25:10;;;;;;;35.10;25.67;;;;;;;;;;5018043;28;20181;-81
2023/04/30 07:27:36;;;;;;;37.35;26.20;;;;;;;;;;5001536;28;20217;-79
2023/04/30 07:30:03;;;;;;;34.13;23.55;;;;;;;;;;5035296;28;20174;-79
2023/04/30 07:32:29;;;;;;;35.28;25.17;;;;;;;;;;5018263;28;20178;-80
2023/04/30 07:34:55;;;;;;;34.30;24.90;;;;;;;;;;5001332;28;20186;-80
2023/04/30 07:37:21;;;;;;;27.80;21.63;;;;;;;;;;5001539;28;20417;-79
2023/04/30 07:39:47;;;;;;;29.40;21.40;;;;;;;;;;5017621;28;20421;-79
2023/04/30 07:42:12;;;;;;;26.03;20.50;;;;;;;;;;5035288;28;20397;-79
2023/04/30 07:44:40;;;;;;;26.80;19.87;;;;;;;;;;5035098;28;20955;-79
2023/04/30 07:47:06;;;;;;;24.42;18.02;;;;;;;;;;5001159;28;20477;-79
2023/04/30 07:49:32;;;;;;;21.20;16.13;;;;;;;;;;5032202;28;20185;-79
2023/04/30 07:51:59;;;;;;;20.33;17.20;;;;;;;;;;5016752;28;20225;-79
2023/04/30 07:54:25;;;;;;;22.77;16.13;;;;;;;;;;4997715;28;20194;-79
2023/04/30 07:56:51;;;;;;;21.08;15.82;;;;;;;;;;5014051;28;20190;-81
2023/04/30 07:59:17;;;;;;;20.67;15.30;;;;;;;;;;5017657;28;20178;-79
2023/04/30 08:01:44;;;;;;;22.17;15.05;;;;;;;;;;4991794;28;20552;-79
2023/04/30 08:04:10;;;;;;;15.45;13.75;;;;;;;;;;4997329;28;20222;-80
2023/04/30 08:06:36;;;;;;;18.35;14.63;;;;;;;;;;5014932;28;20198;-80
2023/04/30 08:09:02;;;;;;;17.53;14.23;;;;;;;;;;4981714;28;20191;-80
2023/04/30 08:11:28;;;;;;;14.70;12.57;;;;;;;;;;5014815;28;20504;-80
2023/04/30 08:13:54;;;;;;;14.70;11.40;;;;;;;;;;4997258;28;20442;-80
2023/04/30 08:16:20;;;;;;;12.40;11.13;;;;;;;;;;4997337;28;20461;-80
2023/04/30 08:18:48;;;;;;;12.57;10.97;;;;;;;;;;4996658;28;20424;-80
2023/04/30 08:21:14;;;;;;;11.50;10.30;;;;;;;;;;5014073;28;20409;-80
2023/04/30 08:23:40;;;;;;;11.93;10.67;;;;;;;;;;5014756;28;20372;-80
2023/04/30 08:26:06;;;;;;;12.50;10.67;;;;;;;;;;4997035;28;20418;-80
2023/04/30 08:28:32;;;;;;;16.33;11.03;;;;;;;;;;4996614;28;20513;-80
2023/04/30 08:30:58;;;;;;;11.87;10.00;;;;;;;;;;4980512;28;20491;-81
2023/04/30 08:33:24;;;;;;;13.13;10.40;;;;;;;;;;4996739;28;20410;-80
2023/04/30 08:35:50;;;;;;;11.57;10.37;;;;;;;;;;4980461;28;20794;-81
2023/04/30 08:38:17;;;;;;;15.37;9.83;;;;;;;;;;5014302;28;20456;-81
2023/04/30 08:40:48;;;;;;;11.30;10.20;;;;;;;;;;4980710;28;20450;-81
2023/04/30 08:43:15;;;;;;;12.57;10.37;;;;;;;;;;4996543;28;20396;-82
2023/04/30 08:45:41;;;;;;;13.10;10.20;;;;;;;;;;5013295;28;20406;-82
2023/04/30 08:48:10;;;;;;;9.23;8.33;;;;;;;;;;4996267;28;20512;-82
2023/04/30 08:50:36;;;;;;;10.47;9.37;;;;;;;;;;5013489;28;20405;-83
2023/04/30 08:53:02;;;;;;;10.27;9.13;;;;;;;;;;4996081;28;20876;-86
2023/04/30 08:55:28;;;;;;;9.50;7.57;;;;;;;;;;5014594;28;20386;-84
2023/04/30 08:57:54;;;;;;;9.80;8.37;;;;;;;;;;4999379;28;20403;-85
2023/04/30 09:00:20;;;;;;;9.20;8.13;;;;;;;;;;4999834;28;20410;-85
2023/04/30 09:02:47;;;;;;;7.60;6.80;;;;;;;;;;5015572;28;20472;-86
2023/04/30 09:05:14;;;;;;;8.07;7.07;;;;;;;;;;5019058;28;20416;-86
2023/04/30 09:07:41;;;;;;;8.73;7.77;;;;;;;;;;5019014;28;20439;-84
2023/04/30 09:10:27;;;;;;;11.03;7.17;;;;;;;;;;5002758;28;20429;-85
2023/04/30 09:13:04;;;;;;;7.40;6.70;;;;;;;;;;5018358;28;20511;-84
2023/04/30 09:15:31;;;;;;;7.63;6.93;;;;;;;;;;5018475;28;20474;-85
2023/04/30 09:18:26;;;;;;;8.50;7.70;;;;;;;;;;5018434;28;20417;-84
2023/04/30 09:21:02;;;;;;;6.13;5.50;;;;;;;;;;5015136;28;20417;-86
2023/04/30 09:23:28;;;;;;;5.30;4.77;;;;;;;;;;5018270;28;20424;-86
2023/04/30 09:25:55;;;;;;;5.40;4.70;;;;;;;;;;5018048;28;20405;-86
2023/04/30 09:28:26;;;;;;;5.60;4.53;;;;;;;;;;5018551;28;20429;-86
2023/04/30 09:30:52;;;;;;;6.83;6.00;;;;;;;;;;5018146;28;20440;-86
2023/04/30 09:33:18;;;;;;;8.93;5.20;;;;;;;;;;4998771;28;20469;-86
2023/04/30 09:35:44;;;;;;;3.60;3.30;;;;;;;;;;4995051;28;20444;-87
2023/04/30 09:38:26;;;;;;;2.60;2.40;;;;;;;;;;5002184;28;20429;-85
2023/04/30 09:40:52;;;;;;;5.73;3.43;;;;;;;;;;5018198;28;20460;-85
2023/04/30 09:43:18;;;;;;;5.63;5.13;;;;;;;;;;5002070;28;20463;-85
2023/04/30 09:45:50;;;;;;;5.77;5.20;;;;;;;;;;5035122;28;20448;-85
2023/04/30 09:48:17;;;;;;;7.03;6.00;;;;;;;;;;5018008;28;20563;-84
2023/04/30 09:50:44;;;;;;;6.60;5.90;;;;;;;;;;5001741;28;20432;-85
2023/04/30 09:53:12;;;;;;;6.43;5.83;;;;;;;;;;5035408;28;20401;-84
2023/04/30 09:55:41;;;;;;;5.00;4.60;;;;;;;;;;5019296;28;20467;-89
2023/04/30 09:58:09;;;;;;;2.20;1.90;;;;;;;;;;5017753;28;20853;-85
2023/04/30 10:00:35;;;;;;;3.53;3.23;;;;;;;;;;5035251;28;20409;-86
2023/04/30 10:03:06;;;;;;;3.50;3.20;;;;;;;;;;5014043;28;20525;-83
2023/04/30 10:05:33;;;;;;;4.97;4.10;;;;;;;;;;5014324;28;20413;-84
2023/04/30 10:07:59;;;;;;;5.57;4.50;;;;;;;;;;5013613;28;20577;-82
2023/04/30 10:10:26;;;;;;;3.80;3.50;;;;;;;;;;5014780;28;20935;-85
2023/04/30 10:12:54;;;;;;;5.07;4.57;;;;;;;;;;5014274;28;20937;-81
2023/04/30 10:15:22;;;;;;;5.87;4.90;;;;;;;;;;4997478;28;20902;-85
2023/04/30 10:18:01;;;;;;;5.53;4.93;;;;;;;;;;5014852;28;20846;-83
2023/04/30 10:20:28;;;;;;;5.87;3.97;;;;;;;;;;4997801;28;20422;-83
2023/04/30 10:22:55;;;;;;;6.33;3.10;;;;;;;;;;4981274;28;20750;-84
2023/04/30 10:25:22;;;;;;;7.70;4.90;;;;;;;;;;5015084;28;20417;-81
2023/04/30 10:27:48;;;;;;;4.60;4.20;;;;;;;;;;4997049;28;20461;-83
2023/04/30 10:30:15;;;;;;;3.77;3.47;;;;;;;;;;4997368;28;20428;-83
2023/04/30 10:32:49;;;;;;;4.30;2.90;;;;;;;;;;5014937;28;20990;-85
2023/04/30 10:35:19;;;;;;;3.60;3.30;;;;;;;;;;4997836;28;20448;-85
2023/04/30 10:37:53;;;;;;;2.77;2.43;;;;;;;;;;5015164;28;20770;-86
2023/04/30 10:40:19;;;;;;;3.10;2.33;;;;;;;;;;5015061;28;20436;-84
2023/04/30 10:42:46;;;;;;;4.07;2.20;;;;;;;;;;4997204;28;20833;-84
2023/04/30 10:45:12;;;;;;;2.30;2.07;;;;;;;;;;4997580;28;20422;-84
2023/04/30 10:47:41;;;;;;;4.27;2.97;;;;;;;;;;5014782;28;20517;-84
2023/04/30 10:50:10;;;;;;;3.63;3.13;;;;;;;;;;4997729;28;20426;-85
2023/04/30 10:52:37;;;;;;;3.10;2.47;;;;;;;;;;5014534;28;20405;-84
2023/04/30 10:55:04;;;;;;;2.70;2.50;;;;;;;;;;4997324;28;20402;-83
2023/04/30 10:57:30;;;;;;;4.30;2.73;;;;;;;;;;5014735;28;20420;-85
2023/04/30 11:00:09;;;;;;;4.97;3.37;;;;;;;;;;4997115;28;20422;-85
2023/04/30 11:02:39;;;;;;;3.00;2.77;;;;;;;;;;4996581;28;20481;-85
2023/04/30 11:05:09;;;;;;;6.87;3.23;;;;;;;;;;4996898;28;20417;-85
2023/04/30 11:07:35;;;;;;;3.70;3.40;;;;;;;;;;4996749;28;20469;-84
2023/04/30 11:10:02;;;;;;;4.13;3.40;;;;;;;;;;4980426;28;20856;-85
2023/04/30 11:12:28;;;;;;;3.90;3.53;;;;;;;;;;5014495;28;20438;-85
2023/04/30 11:15:01;;;;;;;3.30;2.73;;;;;;;;;;4996465;28;20420;-85
2023/04/30 11:17:28;;;;;;;3.50;3.13;;;;;;;;;;4996526;28;20429;-85
2023/04/30 11:19:59;;;;;;;4.33;3.27;;;;;;;;;;4996222;28;20429;-84
2023/04/30 11:22:28;;;;;;;2.93;2.73;;;;;;;;;;4996813;28;20405;-85
2023/04/30 11:24:54;;;;;;;3.87;2.47;;;;;;;;;;4996362;28;20453;-85
2023/04/30 11:27:24;;;;;;;2.70;2.50;;;;;;;;;;4996669;28;20544;-85
2023/04/30 11:29:51;;;;;;;2.93;2.60;;;;;;;;;;4996542;28;20414;-84
2023/04/30 11:32:21;;;;;;;3.70;2.40;;;;;;;;;;4996478;28;20422;-84
2023/04/30 11:34:47;;;;;;;2.23;2.03;;;;;;;;;;4996092;28;20414;-84
2023/04/30 11:37:18;;;;;;;3.00;2.13;;;;;;;;;;4996340;28;20418;-84
2023/04/30 11:39:44;;;;;;;3.40;2.20;;;;;;;;;;4996317;28;20525;-88
2023/04/30 11:42:15;;;;;;;2.73;2.17;;;;;;;;;;5010033;28;20417;-84
2023/04/30 11:44:41;;;;;;;3.10;1.60;;;;;;;;;;4994091;28;20494;-84
2023/04/30 11:47:07;;;;;;;2.60;1.57;;;;;;;;;;4960612;28;20572;-85
2023/04/30 11:49:33;;;;;;;2.17;1.70;;;;;;;;;;4991069;28;20414;-84
2023/04/30 11:51:59;;;;;;;1.97;1.70;;;;;;;;;;4995738;28;20546;-84
2023/04/30 11:54:25;;;;;;;2.40;2.30;;;;;;;;;;5013429;28;20442;-89
2023/04/30 11:56:51;;;;;;;3.80;2.53;;;;;;;;;;5013721;28;20937;-89
2023/04/30 11:59:18;;;;;;;1.63;1.53;;;;;;;;;;5014884;28;20421;-88
2023/04/30 12:01:44;;;;;;;2.17;2.07;;;;;;;;;;5018580;28;20468;-88
2023/04/30 12:04:11;;;;;;;1.90;1.80;;;;;;;;;;5030907;28;20413;-88
2023/04/30 12:06:36;;;;;;;3.93;2.13;;;;;;;;;;5014466;28;20487;-88
2023/04/30 12:09:06;;;;;;;3.00;2.47;;;;;;;;;;5032515;28;20796;-88
2023/04/30 12:11:32;;;;;;;2.43;2.17;;;;;;;;;;5034036;28;20460;-89
2023/04/30 12:14:03;;;;;;;2.33;2.13;;;;;;;;;;5033486;28;20401;-87
2023/04/30 12:16:38;;;;;;;2.00;1.77;;;;;;;;;;5033105;28;20459;-88
2023/04/30 12:19:04;;;;;;;2.60;1.70;;;;;;;;;;5032991;28;20396;-88
2023/04/30 12:21:30;;;;;;;1.90;1.80;;;;;;;;;;5032711;28;20417;-87
2023/04/30 12:23:56;;;;;;;1.50;1.20;;;;;;;;;;5031795;28;20471;-87
2023/04/30 12:26:22;;;;;;;1.07;0.97;;;;;;;;;;5031913;28;20452;-87
2023/04/30 12:28:49;;;;;;;1.70;1.60;;;;;;;;;;5031657;28;20792;-87
2023/04/30 12:31:17;;;;;;;1.53;1.40;;;;;;;;;;5034213;28;20416;-87
2023/04/30 12:33:44;;;;;;;1.50;1.40;;;;;;;;;;5035078;28;20459;-80
2023/04/30 12:36:10;;;;;;;1.30;1.20;;;;;;;;;;5017074;28;20388;-80
2023/04/30 12:38:36;;;;;;;1.30;1.10;;;;;;;;;;5017872;28;20464;-80
2023/04/30 12:41:04;;;;;;;1.30;1.20;;;;;;;;;;4997486;28;20843;-88
2023/04/30 12:43:30;;;;;;;1.20;1.10;;;;;;;;;;5015869;28;20528;-89
2023/04/30 12:45:57;;;;;;;1.10;1.00;;;;;;;;;;5015464;28;20770;-87
2023/04/30 12:48:24;;;;;;;1.40;1.30;;;;;;;;;;5022367;28;20476;-88
2023/04/30 12:50:54;;;;;;;1.10;0.93;;;;;;;;;;5034285;28;20405;-86
2023/04/30 12:53:20;;;;;;;5.57;1.43;;;;;;;;;;5034436;28;20397;-86
2023/04/30 12:56:05;;;;;;;1.00;0.80;;;;;;;;;;5034807;28;20424;-87
2023/04/30 12:58:31;;;;;;;1.20;1.10;;;;;;;;;;5033109;28;20455;-88
2023/04/30 13:00:58;;;;;;;2.30;1.17;;;;;;;;;;4997175;28;1070296;-87
2023/04/30 13:03:24;;;;;;;9.67;8.67;;;;;;;;;;5026352;28;20420;-88
2023/04/30 13:05:51;;;;;;;2.70;1.17;;;;;;;;;;5019701;28;20432;-84
2023/04/30 13:08:18;;;;;;;1.20;1.10;;;;;;;;;;5019949;28;20551;-89
2023/04/30 13:10:45;;;;;;;1.10;1.00;;;;;;;;;;5037680;28;20397;-88
2023/04/30 13:13:12;;;;;;;1.30;1.07;;;;;;;;;;5037155;28;20408;-88
2023/04/30 13:15:39;;;;;;;3.47;1.13;;;;;;;;;;5036836;28;20495;-89
2023/04/30 13:18:07;;;;;;;4.33;1.20;;;;;;;;;;5036619;28;20485;-91
2023/04/30 13:20:33;;;;;;;1.17;0.90;;;;;;;;;;5037817;28;20405;-91
2023/04/30 13:22:59;;;;;;;1.23;1.00;;;;;;;;;;5036980;28;20424;-91
2023/04/30 13:25:26;;;;;;;1.17;0.90;;;;;;;;;;5036620;28;20409;-91
2023/04/30 13:27:52;;;;;;;1.10;0.87;;;;;;;;;;5036767;28;20461;-89
2023/04/30 13:30:18;;;;;;;1.27;0.90;;;;;;;;;;5037473;28;20420;-91
2023/04/30 13:32:45;;;;;;;2.00;1.00;;;;;;;;;;5019941;28;20436;-91
2023/04/30 13:35:11;;;;;;;3.73;1.10;;;;;;;;;;5036612;28;20425;-91
2023/04/30 13:37:37;;;;;;;1.10;1.00;;;;;;;;;;5010031;28;20421;-90
2023/04/30 13:40:05;;;;;;;1.10;1.00;;;;;;;;;;4999092;28;20505;-91
2023/04/30 13:42:31;;;;;;;1.20;1.10;;;;;;;;;;5016756;28;20450;-91
2023/04/30 13:44:57;;;;;;;1.03;1.00;;;;;;;;;;5017299;28;20463;-91
2023/04/30 13:47:23;;;;;;;1.30;1.03;;;;;;;;;;5016550;28;20471;-91
2023/04/30 13:49:49;;;;;;;2.30;2.10;;;;;;;;;;4999322;28;20460;-91
2023/04/30 13:52:15;;;;;;;1.20;1.00;;;;;;;;;;4998747;28;20836;-91
2023/04/30 13:54:41;;;;;;;0.80;0.67;;;;;;;;;;4998807;28;20501;-91
2023/04/30 13:57:07;;;;;;;1.60;1.50;;;;;;;;;;4998591;28;20891;-91
2023/04/30 13:59:33;;;;;;;4.33;3.93;;;;;;;;;;4982802;28;20472;-91
2023/04/30 14:01:59;;;;;;;1.37;1.27;;;;;;;;;;5016143;28;20509;-91
2023/04/30 14:04:26;;;;;;;0.80;0.70;;;;;;;;;;5017553;28;20410;-91
2023/04/30 14:06:55;;;;;;;0.90;0.80;;;;;;;;;;5000048;28;20489;-92
2023/04/30 14:09:21;;;;;;;1.90;1.80;;;;;;;;;;4999413;28;20510;-91
2023/04/30 14:11:47;;;;;;;2.20;1.90;;;;;;;;;;4999123;28;20421;-92
2023/04/30 14:14:13;;;;;;;0.70;0.70;;;;;;;;;;5015837;28;20398;-91
2023/04/30 14:16:39;;;;;;;0.77;0.70;;;;;;;;;;5016212;28;20472;-93
2023/04/30 14:19:05;;;;;;;1.20;1.00;;;;;;;;;;4999085;28;20405;-93
2023/04/30 14:21:32;;;;;;;1.10;1.00;;;;;;;;;;4999378;28;20801;-93
2023/04/30 14:23:58;;;;;;;4.10;0.90;;;;;;;;;;4999653;28;20422;-91
2023/04/30 14:26:24;;;;;;;0.93;0.90;;;;;;;;;;4999483;28;20831;-92
2023/04/30 14:28:50;;;;;;;2.10;0.90;;;;;;;;;;5020075;28;20413;-92
2023/04/30 14:31:16;;;;;;;1.03;0.93;;;;;;;;;;5023300;28;20429;-91
2023/04/30 14:33:43;;;;;;;1.10;0.90;;;;;;;;;;5021963;28;20410;-93
2023/04/30 14:36:09;;;;;;;1.23;0.80;;;;;;;;;;5029930;28;20419;-92
2023/04/30 14:38:35;;;;;;;1.30;0.83;;;;;;;;;;5023774;28;20921;-92
2023/04/30 14:41:01;;;;;;;1.00;0.90;;;;;;;;;;5014123;28;20424;-89
2023/04/30 14:43:27;;;;;;;0.70;0.70;;;;;;;;;;4984318;28;20422;-92
2023/04/30 14:45:53;;;;;;;1.13;0.90;;;;;;;;;;4998084;28;20406;-81
2023/04/30 14:48:19;;;;;;;0.80;0.80;;;;;;;;;;4996238;28;20465;-81
2023/04/30 14:50:45;;;;;;;0.87;0.80;;;;;;;;;;4996558;28;20419;-81
2023/04/30 14:53:11;;;;;;;1.33;1.00;;;;;;;;;;4995728;28;20409;-81
2023/04/30 14:55:38;;;;;;;1.00;0.90;;;;;;;;;;4997092;28;20417;-81
2023/04/30 14:58:04;;;;;;;1.40;0.80;;;;;;;;;;4980106;28;20426;-82
2023/04/30 15:00:32;;;;;;;3.50;0.80;;;;;;;;;;4996836;28;20406;-81
2023/04/30 15:02:58;;;;;;;1.07;0.90;;;;;;;;;;4977966;28;20470;-81
2023/04/30 15:05:24;;;;;;;1.00;0.77;;;;;;;;;;4977615;28;20421;-81
2023/04/30 15:07:50;;;;;;;1.03;0.93;;;;;;;;;;4961098;28;20466;-81
2023/04/30 15:10:15;;;;;;;1.27;0.73;;;;;;;;;;4976953;28;20490;-81
2023/04/30 15:12:42;;;;;;;0.87;0.80;;;;;;;;;;4961444;28;20411;-81
2023/04/30 15:15:08;;;;;;;2.27;1.00;;;;;;;;;;4961004;28;20446;-82